createdAt,value
2024-02-02T00:02:15.927Z,101213.81
2024-02-02T00:04:43.165Z,101215.91
2024-02-02T00:07:15.026Z,101226.19
2024-02-02T00:09:43.932Z,101222.59
2024-02-02T00:12:12.711Z,101220.91
2024-02-02T00:14:39.980Z,101213.34
2024-02-02T00:17:07.781Z,101212.94
2024-02-02T00:19:35.372Z,101213.78
2024-02-02T00:22:02.531Z,101224.69
2024-02-02T00:24:29.811Z,101217.13
2024-02-02T00:26:57.113Z,101222.59
2024-02-02T00:29:24.280Z,101230.78
2024-02-02T00:31:51.358Z,101228.06
2024-02-02T00:34:18.758Z,101216.31
2024-02-02T00:36:47.715Z,101219.03
2024-02-02T00:39:14.905Z,101219.03
2024-02-02T00:41:42.066Z,101214.41
2024-02-02T00:44:09.911Z,101215.47
2024-02-02T00:46:37.222Z,101222.59
2024-02-02T00:49:04.499Z,101214.41
2024-02-02T00:51:31.758Z,101224.28
2024-02-02T00:53:58.771Z,101219.22
2024-02-02T00:56:26.209Z,101212.72
2024-02-02T00:58:53.489Z,101205.78
2024-02-02T01:01:20.676Z,101204.94
2024-02-02T01:03:48.299Z,101195.06
2024-02-02T01:06:15.743Z,101209.75
2024-02-02T01:08:42.839Z,101200.72
2024-02-02T01:11:10.049Z,101193.78
2024-02-02T01:13:39.890Z,101194.44
2024-02-02T01:16:07.537Z,101195.84
2024-02-02T01:18:34.953Z,101201.97
2024-02-02T01:21:02.421Z,101194.84
2024-02-02T01:23:29.480Z,101189.38
2024-02-02T01:25:56.859Z,101180.53
2024-02-02T01:28:24.017Z,101199.44
2024-02-02T01:30:51.147Z,101187.66
2024-02-02T01:33:18.743Z,101181.56
2024-02-02T01:35:45.969Z,101185.13
2024-02-02T01:38:13.039Z,101180.53
2024-02-02T01:40:40.290Z,101175.06
2024-02-02T01:43:07.357Z,101177.16
2024-02-02T01:45:35.794Z,101186.00
2024-02-02T01:48:03.866Z,101182.59
2024-02-02T01:50:31.901Z,101177.16
2024-02-02T01:52:58.998Z,101179.88
2024-02-02T01:55:27.828Z,101184.28
2024-02-02T01:57:55.639Z,101182.59
2024-02-02T02:00:22.843Z,101168.13
2024-02-02T02:02:50.018Z,101179.25
2024-02-02T02:05:17.239Z,101171.25
2024-02-02T02:07:45.777Z,101176.72
2024-02-02T02:10:14.526Z,101182.16
2024-02-02T02:12:41.910Z,101184.03
2024-02-02T02:15:11.677Z,101179.63
2024-02-02T02:17:40.211Z,101190.53
2024-02-02T02:20:11.924Z,101188.00
2024-02-02T02:22:39.216Z,101188.19
2024-02-02T02:25:07.104Z,101189.25
2024-02-02T02:27:34.289Z,101187.56
2024-02-02T02:30:03.924Z,101194.06
2024-02-02T02:32:31.663Z,101198.84
2024-02-02T02:34:59.074Z,101192.78
2024-02-02T02:37:26.222Z,101195.50
2024-02-02T02:39:53.536Z,101192.09
2024-02-02T02:42:21.578Z,101188.13
2024-02-02T02:44:48.807Z,101187.47
2024-02-02T02:47:15.976Z,101193.97
2024-02-02T02:49:44.630Z,101182.41
2024-02-02T02:52:11.737Z,101190.59
2024-02-02T02:54:40.680Z,101183.63
2024-02-02T02:57:07.720Z,101173.47
2024-02-02T02:59:35.207Z,101180.25
2024-02-02T03:02:02.637Z,101181.94
2024-02-02T03:04:29.792Z,101177.34
2024-02-02T03:06:56.914Z,101183.44
2024-02-02T03:09:25.084Z,101188.88
2024-02-02T03:11:52.275Z,101190.59
2024-02-02T03:14:19.528Z,101186.63
2024-02-02T03:16:46.755Z,101183.69
2024-02-02T03:19:14.968Z,101185.41
2024-02-02T03:21:42.205Z,101196.06
2024-02-02T03:24:12.121Z,101204.47
2024-02-02T03:26:39.629Z,101197.97
2024-02-02T03:29:06.787Z,101195.44
2024-02-02T03:31:33.811Z,101206.78
2024-02-02T03:34:01.124Z,101195.88
2024-02-02T03:36:29.001Z,101210.19
2024-02-02T03:38:56.351Z,101206.78
2024-02-02T03:41:23.543Z,101210.38
2024-02-02T03:43:51.611Z,101190.84
2024-02-02T03:46:18.726Z,101197.56
2024-02-02T03:48:46.161Z,101199.66
2024-02-02T03:51:13.633Z,101203.44
2024-02-02T03:53:41.089Z,101204.06
2024-02-02T03:56:08.543Z,101200.50
2024-02-02T03:58:39.610Z,101214.97
2024-02-02T04:01:07.441Z,101217.69
2024-02-02T04:03:35.523Z,101217.69
2024-02-02T04:06:02.896Z,101209.94
2024-02-02T04:08:32.883Z,101216.00
2024-02-02T04:11:00.039Z,101208.03
2024-02-02T04:13:27.229Z,101216.00
2024-02-02T04:15:54.313Z,101212.44
2024-02-02T04:18:21.738Z,101221.47
2024-02-02T04:20:50.293Z,101211.09
2024-02-02T04:23:17.585Z,101227.97
2024-02-02T04:25:44.759Z,101227.31
2024-02-02T04:28:12.032Z,101237.81
2024-02-02T04:30:39.160Z,101234.47
2024-02-02T04:33:06.472Z,101235.28
2024-02-02T04:35:36.488Z,101238.03
2024-02-02T04:38:04.203Z,101239.91
2024-02-02T04:40:31.866Z,101240.94
2024-02-02T04:42:59.407Z,101234.84
2024-02-02T04:45:26.701Z,101242.84
2024-02-02T04:47:54.061Z,101237.75
2024-02-02T04:50:23.757Z,101243.41
2024-02-02T04:52:50.875Z,101244.47
2024-02-02T04:55:18.259Z,101248.22
2024-02-02T04:57:45.321Z,101243.16
2024-02-02T05:00:13.534Z,101248.59
2024-02-02T05:02:40.973Z,101257.81
2024-02-02T05:05:08.410Z,101250.69
2024-02-02T05:07:38.818Z,101254.47
2024-02-02T05:10:07.383Z,101249.41
2024-02-02T05:12:35.575Z,101257.75
2024-02-02T05:15:03.449Z,101257.13
2024-02-02T05:17:30.912Z,101257.31
2024-02-02T05:19:58.527Z,101259.38
2024-02-02T05:22:25.519Z,101273.00
2024-02-02T05:24:52.747Z,101268.22
2024-02-02T05:27:20.737Z,101268.22
2024-02-02T05:29:50.561Z,101277.44
2024-02-02T05:32:17.988Z,101282.91
2024-02-02T05:34:45.271Z,101276.41
2024-02-02T05:37:12.562Z,101285.88
2024-02-02T05:39:40.065Z,101283.78
2024-02-02T05:42:07.735Z,101293.66
2024-02-02T05:44:34.999Z,101290.53
2024-02-02T05:47:02.225Z,101295.63
2024-02-02T05:49:29.619Z,101284.72
2024-02-02T05:51:57.764Z,101301.97
2024-02-02T05:54:26.548Z,101300.91
2024-02-02T05:56:53.629Z,101297.63
2024-02-02T05:59:22.387Z,101302.03
2024-02-02T06:01:50.497Z,101298.06
2024-02-02T06:04:17.742Z,101301.47
2024-02-02T06:06:45.991Z,101301.72
2024-02-02T06:09:15.365Z,101303.41
2024-02-02T06:11:42.707Z,101316.25
2024-02-02T06:14:09.971Z,101308.06
2024-02-02T06:16:37.485Z,101311.06
2024-02-02T06:19:04.985Z,101317.81
2024-02-02T06:21:33.895Z,101316.59
2024-02-02T06:24:01.374Z,101319.13
2024-02-02T06:26:28.542Z,101316.41
2024-02-02T06:28:56.112Z,101328.41
2024-02-02T06:31:25.659Z,101325.50
2024-02-02T06:33:53.239Z,101320.03
2024-02-02T06:36:26.189Z,101332.22
2024-02-02T06:38:57.698Z,101336.47
2024-02-02T06:41:25.109Z,101332.50
2024-02-02T06:43:52.296Z,101336.91
2024-02-02T06:50:33.164Z,101340.69
2024-02-02T06:57:19.169Z,101349.19
2024-02-02T06:59:53.002Z,101341.81
2024-02-02T07:02:31.923Z,101337.84
2024-02-02T07:09:28.169Z,101320.22
2024-02-02T07:12:00.259Z,101327.34
2024-02-02T07:14:48.199Z,101330.56
2024-02-02T07:17:41.941Z,101333.28
2024-02-02T07:20:27.317Z,101326.97
2024-02-02T07:22:57.238Z,101328.03
2024-02-02T07:25:26.270Z,101318.16
2024-02-02T07:27:53.875Z,101329.13
2024-02-02T07:30:33.038Z,101316.97
2024-02-02T07:33:01.502Z,101308.31
2024-02-02T07:35:36.800Z,101328.31
2024-02-02T07:38:09.492Z,101330.44
2024-02-02T07:41:02.699Z,101340.78
2024-02-02T07:43:34.678Z,101334.25
2024-02-02T07:46:05.043Z,101335.13
2024-02-02T07:48:34.937Z,101345.63
2024-02-02T07:51:02.867Z,101341.22
2024-02-02T07:53:30.087Z,101335.75
2024-02-02T07:55:57.249Z,101345.63
2024-02-02T07:58:24.422Z,101349.41
2024-02-02T08:00:52.268Z,101356.53
2024-02-02T08:03:19.855Z,101357.41
2024-02-02T08:05:47.772Z,101370.19
2024-02-02T08:08:15.730Z,101375.47
2024-02-02T08:14:55.927Z,101371.25
2024-02-02T08:17:23.064Z,101375.03
2024-02-02T08:24:08.967Z,101371.44
2024-02-02T08:26:37.167Z,101378.81
2024-02-02T08:29:04.199Z,101373.34
2024-02-02T08:35:37.626Z,101383.59
2024-02-02T08:38:08.989Z,101378.84
2024-02-02T08:40:42.250Z,101383.19
2024-02-02T08:43:24.197Z,101389.56
2024-02-02T08:46:08.001Z,101386.41
2024-02-02T08:48:47.333Z,101380.56
2024-02-02T08:51:25.324Z,101365.50
2024-02-02T08:58:09.853Z,101363.25
2024-02-02T09:00:40.915Z,101359.09
2024-02-02T09:03:32.834Z,101354.28
2024-02-02T09:06:02.765Z,101371.94
2024-02-02T09:08:44.442Z,101365.25
2024-02-02T09:11:19.698Z,101366.72
2024-02-02T09:13:48.208Z,101367.41
2024-02-02T09:24:27.235Z,101366.59
2024-02-02T09:26:59.975Z,101375.03
2024-02-02T09:29:27.827Z,101364.97
2024-02-02T09:31:55.085Z,101367.47
2024-02-02T09:34:27.807Z,101375.47
2024-02-02T09:36:55.784Z,101359.94
2024-02-02T09:39:38.626Z,101371.50
2024-02-02T09:42:08.994Z,101367.72
2024-02-02T09:44:47.011Z,101343.69
2024-02-02T09:47:40.072Z,101351.50
2024-02-02T09:50:07.661Z,101350.66
2024-02-02T09:57:05.906Z,101324.78
2024-02-02T09:59:39.123Z,101323.63
2024-02-02T10:02:31.607Z,101325.25
2024-02-02T10:05:24.534Z,101307.00
2024-02-02T10:08:12.607Z,101307.25
2024-02-02T10:11:11.193Z,101312.28
2024-02-02T10:14:12.530Z,101306.22
2024-02-02T10:17:09.145Z,101311.09
2024-02-02T10:19:51.524Z,101301.44
2024-02-02T10:22:28.625Z,101296.41
2024-02-02T10:25:25.174Z,101294.34
2024-02-02T10:27:59.960Z,101296.88
2024-02-02T10:31:02.736Z,101291.00
2024-02-02T10:34:11.935Z,101281.78
2024-02-02T10:36:51.188Z,101283.47
2024-02-02T10:39:32.271Z,101277.19
2024-02-02T10:42:22.709Z,101265.91
2024-02-02T10:45:28.930Z,101260.72
2024-02-02T10:48:40.045Z,101263.81
2024-02-02T10:51:22.495Z,101255.19
2024-02-02T10:54:20.807Z,101250.53
2024-02-02T10:57:30.507Z,101240.47
2024-02-02T11:00:14.974Z,101238.41
2024-02-02T11:03:00.576Z,101245.56
2024-02-02T11:05:27.616Z,101244.31
2024-02-02T11:08:03.008Z,101247.69
2024-02-02T11:10:38.411Z,101244.78
2024-02-02T11:13:26.751Z,101232.16
2024-02-02T11:16:05.349Z,101232.41
2024-02-02T11:18:35.273Z,101236.63
2024-02-02T11:21:18.810Z,101231.78
2024-02-02T11:24:03.837Z,101221.72
2024-02-02T11:26:31.401Z,101219.63
2024-02-02T11:29:15.296Z,101215.81
2024-02-02T11:31:57.998Z,101208.50
2024-02-02T11:34:36.284Z,101215.81
2024-02-02T11:37:13.540Z,101208.50
2024-02-02T11:40:06.109Z,101208.28
2024-02-02T11:42:37.546Z,101200.31
2024-02-02T11:45:07.327Z,101205.38
2024-02-02T11:47:45.535Z,101198.19
2024-02-02T11:50:18.118Z,101196.97
2024-02-02T11:52:53.321Z,101194.03
2024-02-02T11:55:27.985Z,101196.56
2024-02-02T11:58:01.450Z,101195.53
2024-02-02T12:00:41.535Z,101187.31
2024-02-02T12:03:33.688Z,101179.56
2024-02-02T12:06:14.877Z,101174.53
2024-02-02T12:08:50.982Z,101167.38
2024-02-02T12:11:29.212Z,101165.91
2024-02-02T12:14:05.297Z,101163.53
2024-02-02T12:16:33.017Z,101159.13
2024-02-02T12:19:00.272Z,101158.47
2024-02-02T12:21:27.707Z,101154.06
2024-02-02T12:23:54.920Z,101146.94
2024-02-02T12:30:46.599Z,101136.63
2024-02-02T12:33:13.791Z,101139.38
2024-02-02T12:35:43.674Z,101131.19
2024-02-02T12:38:23.282Z,101132.22
2024-02-02T12:40:51.328Z,101143.56
2024-02-02T12:43:27.281Z,101139.38
2024-02-02T12:45:54.931Z,101141.28
2024-02-02T12:48:22.937Z,101140.41
2024-02-02T12:50:52.960Z,101141.28
2024-02-02T12:53:21.327Z,101144.81
2024-02-02T12:55:48.545Z,101138.31
2024-02-02T12:58:15.890Z,101138.13
2024-02-02T13:00:43.228Z,101140.41
2024-02-02T13:03:14.210Z,101135.59
2024-02-02T13:05:41.612Z,101138.97
2024-02-02T13:08:09.528Z,101138.97
2024-02-02T13:10:36.609Z,101137.91
2024-02-02T13:13:19.068Z,101133.13
2024-02-02T13:15:46.952Z,101132.91
2024-02-02T13:18:20.867Z,101121.31
2024-02-02T13:20:50.651Z,101137.53
2024-02-02T13:23:44.503Z,101137.53
2024-02-02T13:26:12.568Z,101141.09
2024-02-02T13:28:50.560Z,101141.56
2024-02-02T13:31:20.619Z,101141.94
2024-02-02T13:33:58.573Z,101143.44
2024-02-02T13:36:33.365Z,101147.63
2024-02-02T13:39:01.043Z,101139.44
2024-02-02T13:41:37.715Z,101129.34
2024-02-02T13:44:09.636Z,101142.81
2024-02-02T13:46:47.337Z,101139.03
2024-02-02T13:49:34.453Z,101132.72
2024-02-02T13:52:06.364Z,101134.63
2024-02-02T13:54:34.978Z,101127.06
2024-02-02T13:57:02.796Z,101136.94
2024-02-02T13:59:30.893Z,101137.78
2024-02-02T14:02:06.176Z,101143.44
2024-02-02T14:04:33.402Z,101140.91
2024-02-02T14:07:01.615Z,101140.09
2024-02-02T14:09:30.062Z,101133.97
2024-02-02T14:12:04.165Z,101133.56
2024-02-02T14:14:31.536Z,101133.97
2024-02-02T14:17:02.608Z,101134.16
2024-02-02T14:19:30.137Z,101144.44
2024-02-02T14:22:08.585Z,101152.63
2024-02-02T14:24:47.221Z,101142.75
2024-02-02T14:27:15.753Z,101151.56
2024-02-02T14:29:44.438Z,101155.34
2024-02-02T14:32:12.758Z,101158.94
2024-02-02T14:34:42.816Z,101155.34
2024-02-02T14:37:12.424Z,101147.16
2024-02-02T14:39:39.484Z,101155.34
2024-02-02T14:42:06.986Z,101154.97
2024-02-02T14:44:34.350Z,101143.56
2024-02-02T14:47:02.352Z,101162.34
2024-02-02T14:49:29.654Z,101154.78
2024-02-02T14:51:57.099Z,101144.28
2024-02-02T14:54:28.166Z,101157.50
2024-02-02T14:56:55.766Z,101146.59
2024-02-02T14:59:30.417Z,101161.94
2024-02-02T15:01:59.680Z,101157.50
2024-02-02T15:04:26.989Z,101165.94
2024-02-02T15:06:54.499Z,101160.88
2024-02-02T15:09:22.733Z,101162.94
2024-02-02T15:11:51.149Z,101160.00
2024-02-02T15:14:18.368Z,101160.00
2024-02-02T15:16:45.639Z,101161.69
2024-02-02T15:19:14.353Z,101163.41
2024-02-02T15:21:41.616Z,101171.41
2024-02-02T15:24:09.180Z,101166.75
2024-02-02T15:26:40.145Z,101170.53
2024-02-02T15:29:09.223Z,101183.53
2024-02-02T15:31:36.420Z,101176.00
2024-02-02T15:34:07.516Z,101177.06
2024-02-02T15:36:36.714Z,101181.81
2024-02-02T15:39:19.152Z,101183.06
2024-02-02T15:41:54.382Z,101183.06
2024-02-02T15:44:21.688Z,101186.00
2024-02-02T15:46:48.889Z,101185.16
2024-02-02T15:49:16.432Z,101193.34
2024-02-02T15:51:43.650Z,101194.41
2024-02-02T15:54:10.894Z,101180.94
2024-02-02T15:56:38.283Z,101199.03
2024-02-02T15:59:06.402Z,101204.47
2024-02-02T16:01:34.101Z,101211.00
2024-02-02T16:04:04.354Z,101211.81
2024-02-02T16:06:32.709Z,101223.78
2024-02-02T16:08:59.889Z,101227.56
2024-02-02T16:11:27.020Z,101222.50
2024-02-02T16:13:54.497Z,101227.78
2024-02-02T16:16:26.798Z,101233.44
2024-02-02T16:18:54.879Z,101225.66
2024-02-02T16:21:22.244Z,101233.84
2024-02-02T16:23:52.621Z,101243.06
2024-02-02T16:26:20.112Z,101230.88
2024-02-02T16:28:49.132Z,101235.09
2024-02-02T16:31:16.360Z,101240.09
2024-02-02T16:33:43.661Z,101238.41
2024-02-02T16:36:10.831Z,101249.72
2024-02-02T16:38:37.870Z,101250.97
2024-02-02T16:41:05.037Z,101246.13
2024-02-02T16:43:32.540Z,101257.69
2024-02-02T16:45:59.528Z,101257.06
2024-02-02T16:48:26.637Z,101263.38
2024-02-02T16:50:56.390Z,101258.31
2024-02-02T16:53:24.055Z,101259.34
2024-02-02T16:55:51.318Z,101259.75
2024-02-02T16:58:18.465Z,101263.97
2024-02-02T17:00:45.666Z,101268.13
2024-02-02T17:03:13.398Z,101274.00
2024-02-02T17:05:40.765Z,101282.00
2024-02-02T17:08:12.539Z,101285.41
2024-02-02T17:10:40.055Z,101287.09
2024-02-02T17:13:08.060Z,101292.34
2024-02-02T17:15:35.950Z,101295.91
2024-02-02T17:18:03.434Z,101297.63
2024-02-02T17:20:30.481Z,101305.38
2024-02-02T17:22:57.480Z,101298.25
2024-02-02T17:25:24.924Z,101303.31
2024-02-02T17:27:52.109Z,101304.34
2024-02-02T17:30:23.424Z,101291.72
2024-02-02T17:32:50.869Z,101308.34
2024-02-02T17:35:18.140Z,101314.47
2024-02-02T17:37:45.096Z,101322.91
2024-02-02T17:40:14.974Z,101325.44
2024-02-02T17:42:43.797Z,101317.06
2024-02-02T17:45:10.907Z,101323.16
2024-02-02T17:47:40.224Z,101329.22
2024-02-02T17:50:08.185Z,101325.50
2024-02-02T17:52:36.045Z,101319.97
2024-02-02T17:55:03.409Z,101320.41
2024-02-02T17:57:35.187Z,101332.19
2024-02-02T18:00:02.648Z,101334.47
2024-02-02T18:02:39.353Z,101347.66
2024-02-02T18:05:06.823Z,101339.44
2024-02-02T18:07:44.373Z,101354.50
2024-02-02T18:10:15.293Z,101349.66
2024-02-02T18:12:42.456Z,101352.97
2024-02-02T18:15:11.326Z,101356.75
2024-02-02T18:17:38.759Z,101358.63
2024-02-02T18:20:06.478Z,101360.53
2024-02-02T18:22:35.263Z,101364.94
2024-02-02T18:25:05.089Z,101378.78
2024-02-02T18:27:32.154Z,101371.84
2024-02-02T18:30:00.749Z,101373.50
2024-02-02T18:32:27.925Z,101378.97
2024-02-02T18:34:55.162Z,101386.53
2024-02-02T18:37:22.282Z,101393.66
2024-02-02T18:39:49.438Z,101400.81
2024-02-02T18:42:16.629Z,101391.34
2024-02-02T18:44:43.604Z,101405.00
2024-02-02T18:47:10.772Z,101406.22
2024-02-02T18:49:38.650Z,101412.53
2024-02-02T18:52:08.440Z,101406.44
2024-02-02T18:54:35.745Z,101407.44
2024-02-02T18:57:02.903Z,101412.44
2024-02-02T18:59:30.174Z,101410.97
2024-02-02T19:01:57.525Z,101416.81
2024-02-02T19:04:24.686Z,101411.56
2024-02-02T19:06:52.108Z,101425.41
2024-02-02T19:09:23.111Z,101424.09
2024-02-02T19:11:50.288Z,101433.31
2024-02-02T19:14:19.828Z,101426.94
2024-02-02T19:16:48.187Z,101435.13
2024-02-02T19:19:17.049Z,101446.03
2024-02-02T19:21:46.052Z,101450.00
2024-02-02T19:24:16.470Z,101450.19
2024-02-02T19:26:44.548Z,101453.94
2024-02-02T19:29:11.669Z,101442.19
2024-02-02T19:31:40.789Z,101448.66
2024-02-02T19:34:08.496Z,101452.25
2024-02-02T19:36:35.704Z,101460.41
2024-02-02T19:39:03.475Z,101459.03
2024-02-02T19:41:33.777Z,101465.31
2024-02-02T19:44:01.210Z,101468.91
2024-02-02T19:46:33.067Z,101465.56
2024-02-02T19:49:02.552Z,101464.34
2024-02-02T19:51:30.761Z,101455.53
2024-02-02T19:53:58.340Z,101473.19
2024-02-02T19:56:25.939Z,101470.47
2024-02-02T19:58:53.102Z,101469.81
2024-02-02T20:01:22.763Z,101479.88
2024-02-02T20:03:52.854Z,101476.72
2024-02-02T20:06:21.126Z,101477.34
2024-02-02T20:08:49.386Z,101462.13
2024-02-02T20:11:20.468Z,101474.81
2024-02-02T20:13:49.029Z,101484.03
2024-02-02T20:16:17.908Z,101478.94
2024-02-02T20:18:45.341Z,101472.66
2024-02-02T20:21:19.557Z,101488.38
2024-02-02T20:23:49.687Z,101482.09
2024-02-02T20:26:21.578Z,101472.38
2024-02-02T20:28:53.437Z,101486.00
2024-02-02T20:31:21.861Z,101468.16
2024-02-02T20:33:52.873Z,101479.25
2024-02-02T20:36:21.594Z,101482.34
2024-02-02T20:38:49.212Z,101478.13
2024-02-02T20:41:25.982Z,101475.31
2024-02-02T20:43:54.861Z,101475.69
2024-02-02T20:46:22.341Z,101484.91
2024-02-02T20:48:50.821Z,101479.63
2024-02-02T20:51:18.689Z,101479.19
2024-02-02T20:53:48.085Z,101472.22
2024-02-02T20:56:16.305Z,101472.22
2024-02-02T20:58:43.589Z,101487.53
2024-02-02T21:01:10.981Z,101476.00
2024-02-02T21:03:38.409Z,101478.53
2024-02-02T21:06:06.734Z,101480.22
2024-02-02T21:08:34.305Z,101484.00
2024-02-02T21:11:02.192Z,101480.59
2024-02-02T21:13:29.489Z,101487.09
2024-02-02T21:15:56.702Z,101485.41
2024-02-02T21:18:29.006Z,101491.91
2024-02-02T21:20:57.478Z,101495.63
2024-02-02T21:23:24.980Z,101497.13
2024-02-02T21:25:52.285Z,101505.72
2024-02-02T21:28:20.688Z,101504.41
2024-02-02T21:30:48.552Z,101500.16
2024-02-02T21:33:19.950Z,101507.75
2024-02-02T21:35:48.322Z,101526.28
2024-02-02T21:38:15.938Z,101520.84
2024-02-02T21:40:42.906Z,101510.41
2024-02-02T21:43:10.346Z,101514.63
2024-02-02T21:45:38.184Z,101523.47
2024-02-02T21:48:06.212Z,101525.97
2024-02-02T21:50:33.596Z,101524.75
2024-02-02T21:53:00.662Z,101528.16
2024-02-02T21:55:27.894Z,101530.72
2024-02-02T21:57:55.295Z,101534.25
2024-02-02T22:00:23.604Z,101536.63
2024-02-02T22:02:50.797Z,101541.69
2024-02-02T22:05:18.012Z,101545.06
2024-02-02T22:07:45.236Z,101536.72
2024-02-02T22:10:12.420Z,101539.44
2024-02-02T22:12:40.404Z,101538.38
2024-02-02T22:15:09.666Z,101549.13
2024-02-02T22:17:37.129Z,101511.91
2024-02-02T22:20:06.616Z,101540.94
2024-02-02T22:22:35.147Z,101543.03
2024-02-02T22:25:02.267Z,101543.66
2024-02-02T22:27:34.951Z,101550.81
2024-02-02T22:30:07.450Z,101547.03
2024-02-02T22:32:34.901Z,101547.25
2024-02-02T22:35:05.142Z,101545.16
2024-02-02T22:37:32.342Z,101544.31
2024-02-02T22:39:59.433Z,101545.53
2024-02-02T22:42:28.169Z,101545.53
2024-02-02T22:44:55.219Z,101545.34
2024-02-02T22:47:22.382Z,101537.16
2024-02-02T22:49:50.025Z,101540.94
2024-02-02T22:52:19.133Z,101538.19
2024-02-02T22:54:46.208Z,101545.34
2024-02-02T22:57:13.377Z,101544.31
2024-02-02T22:59:42.177Z,101538.84
2024-02-02T23:02:12.973Z,101535.09
2024-02-02T23:04:41.263Z,101531.53
2024-02-02T23:07:09.190Z,101519.56
2024-02-02T23:09:39.428Z,101532.38
2024-02-02T23:12:06.990Z,101536.78
2024-02-02T23:14:35.274Z,101527.75
2024-02-02T23:17:02.482Z,101522.47
2024-02-02T23:19:29.807Z,101526.25
2024-02-02T23:21:56.979Z,101523.53
2024-02-02T23:24:24.191Z,101526.66
2024-02-02T23:26:51.331Z,101524.94
2024-02-02T23:29:19.039Z,101533.34
2024-02-02T23:31:47.504Z,101520.91
2024-02-02T23:34:15.278Z,101528.63
2024-02-02T23:36:42.342Z,101533.63
2024-02-02T23:39:10.227Z,101527.69
2024-02-02T23:41:37.740Z,101534.38
2024-02-02T23:44:05.089Z,101542.94
2024-02-02T23:46:32.238Z,101543.28
2024-02-02T23:49:00.249Z,101539.94
2024-02-02T23:51:27.598Z,101542.66
2024-02-02T23:53:56.579Z,101539.25
2024-02-02T23:56:25.146Z,101541.69
2024-02-02T23:58:52.650Z,101543.41
